sensor_id;sensor_type;location;lat;lon;timestamp;P1;P2;P0
72908;PMS5003;61051;62.624;17.950;2023-08-24T00:00:24;12;11;
72908;PMS5003;61051;62.624;17.950;2023-08-24T00:02:52;9;9;
72908;PMS5003;61051;62.624;17.950;2023-08-24T00:05:21;9;9;
72908;PMS5003;61051;62.624;17.950;2023-08-24T00:07:49;9;9;
72908;PMS5003;61051;62.624;17.950;2023-08-24T00:10:17;10;8;
72908;PMS5003;61051;62.624;17.950;2023-08-24T00:12:45;11;9;
72908;PMS5003;61051;62.624;17.950;2023-08-24T00:15:14;11;10;
72908;PMS5003;61051;62.624;17.950;2023-08-24T00:17:42;10;10;
72908;PMS5003;61051;62.624;17.950;2023-08-24T00:20:10;9;8;
72908;PMS5003;61051;62.624;17.950;2023-08-24T00:22:38;8;8;
72908;PMS5003;61051;62.624;17.950;2023-08-24T00:25:08;10;9;
72908;PMS5003;61051;62.624;17.950;2023-08-24T00:27:38;8;6;
72908;PMS5003;61051;62.624;17.950;2023-08-24T00:30:07;12;10;
72908;PMS5003;61051;62.624;17.950;2023-08-24T00:32:36;9;8;
72908;PMS5003;61051;62.624;17.950;2023-08-24T00:35:05;12;9;
72908;PMS5003;61051;62.624;17.950;2023-08-24T00:37:36;7;7;
72908;PMS5003;61051;62.624;17.950;2023-08-24T00:40:05;7;7;
72908;PMS5003;61051;62.624;17.950;2023-08-24T00:42:37;8;8;
72908;PMS5003;61051;62.624;17.950;2023-08-24T00:45:07;13;9;
72908;PMS5003;61051;62.624;17.950;2023-08-24T00:47:37;8;7;
72908;PMS5003;61051;62.624;17.950;2023-08-24T00:50:07;9;9;
72908;PMS5003;61051;62.624;17.950;2023-08-24T00:52:38;9;8;
72908;PMS5003;61051;62.624;17.950;2023-08-24T00:55:09;13;11;
72908;PMS5003;61051;62.624;17.950;2023-08-24T00:57:37;10;10;
72908;PMS5003;61051;62.624;17.950;2023-08-24T01:00:07;8;7;
72908;PMS5003;61051;62.624;17.950;2023-08-24T01:02:37;7;7;
72908;PMS5003;61051;62.624;17.950;2023-08-24T01:05:06;12;9;
72908;PMS5003;61051;62.624;17.950;2023-08-24T01:07:36;8;7;
72908;PMS5003;61051;62.624;17.950;2023-08-24T01:10:08;7;7;
72908;PMS5003;61051;62.624;17.950;2023-08-24T01:12:42;10;8;
72908;PMS5003;61051;62.624;17.950;2023-08-24T01:15:23;11;8;
72908;PMS5003;61051;62.624;17.950;2023-08-24T01:17:57;9;7;
72908;PMS5003;61051;62.624;17.950;2023-08-24T01:20:32;8;8;
72908;PMS5003;61051;62.624;17.950;2023-08-24T01:23:07;7;7;
72908;PMS5003;61051;62.624;17.950;2023-08-24T01:25:45;6;6;
72908;PMS5003;61051;62.624;17.950;2023-08-24T01:28:20;10;8;
72908;PMS5003;61051;62.624;17.950;2023-08-24T01:30:50;14;9;
72908;PMS5003;61051;62.624;17.950;2023-08-24T01:33:18;7;7;
72908;PMS5003;61051;62.624;17.950;2023-08-24T01:35:46;9;9;
72908;PMS5003;61051;62.624;17.950;2023-08-24T01:38:14;8;8;
72908;PMS5003;61051;62.624;17.950;2023-08-24T01:40:45;7;7;
72908;PMS5003;61051;62.624;17.950;2023-08-24T01:43:28;7;7;
72908;PMS5003;61051;62.624;17.950;2023-08-24T01:45:59;9;8;
72908;PMS5003;61051;62.624;17.950;2023-08-24T01:48:30;7;7;
72908;PMS5003;61051;62.624;17.950;2023-08-24T01:50:59;13;13;
72908;PMS5003;61051;62.624;17.950;2023-08-24T01:53:31;18;9;
72908;PMS5003;61051;62.624;17.950;2023-08-24T01:56:00;10;10;
72908;PMS5003;61051;62.624;17.950;2023-08-24T01:58:28;10;10;
72908;PMS5003;61051;62.624;17.950;2023-08-24T02:00:56;8;8;
72908;PMS5003;61051;62.624;17.950;2023-08-24T02:03:24;7;7;
72908;PMS5003;61051;62.624;17.950;2023-08-24T02:05:53;12;8;
72908;PMS5003;61051;62.624;17.950;2023-08-24T02:08:21;9;9;
72908;PMS5003;61051;62.624;17.950;2023-08-24T02:10:51;7;7;
72908;PMS5003;61051;62.624;17.950;2023-08-24T02:13:20;11;10;
72908;PMS5003;61051;62.624;17.950;2023-08-24T02:15:48;11;11;
72908;PMS5003;61051;62.624;17.950;2023-08-24T02:18:16;9;8;
72908;PMS5003;61051;62.624;17.950;2023-08-24T02:20:44;9;9;
72908;PMS5003;61051;62.624;17.950;2023-08-24T02:23:12;12;9;
72908;PMS5003;61051;62.624;17.950;2023-08-24T02:25:41;12;9;
72908;PMS5003;61051;62.624;17.950;2023-08-24T02:28:11;10;10;
72908;PMS5003;61051;62.624;17.950;2023-08-24T02:30:39;10;10;
72908;PMS5003;61051;62.624;17.950;2023-08-24T02:33:07;13;13;
72908;PMS5003;61051;62.624;17.950;2023-08-24T02:35:35;11;10;
72908;PMS5003;61051;62.624;17.950;2023-08-24T02:38:05;13;12;
72908;PMS5003;61051;62.624;17.950;2023-08-24T02:40:35;14;12;
72908;PMS5003;61051;62.624;17.950;2023-08-24T02:43:04;18;13;
72908;PMS5003;61051;62.624;17.950;2023-08-24T02:45:34;16;16;
72908;PMS5003;61051;62.624;17.950;2023-08-24T02:48:02;12;12;
72908;PMS5003;61051;62.624;17.950;2023-08-24T02:50:31;18;12;
72908;PMS5003;61051;62.624;17.950;2023-08-24T02:52:59;15;13;
72908;PMS5003;61051;62.624;17.950;2023-08-24T02:55:28;16;15;
72908;PMS5003;61051;62.624;17.950;2023-08-24T02:58:00;17;15;
72908;PMS5003;61051;62.624;17.950;2023-08-24T03:00:28;23;15;
72908;PMS5003;61051;62.624;17.950;2023-08-24T03:02:57;14;11;
72908;PMS5003;61051;62.624;17.950;2023-08-24T03:05:25;12;11;
72908;PMS5003;61051;62.624;17.950;2023-08-24T03:07:53;13;13;
72908;PMS5003;61051;62.624;17.950;2023-08-24T03:10:22;16;10;
72908;PMS5003;61051;62.624;17.950;2023-08-24T03:12:51;13;10;
72908;PMS5003;61051;62.624;17.950;2023-08-24T03:15:20;12;11;
72908;PMS5003;61051;62.624;17.950;2023-08-24T03:17:49;19;14;
72908;PMS5003;61051;62.624;17.950;2023-08-24T03:20:18;14;13;
72908;PMS5003;61051;62.624;17.950;2023-08-24T03:22:46;15;14;
72908;PMS5003;61051;62.624;17.950;2023-08-24T03:25:14;16;13;
72908;PMS5003;61051;62.624;17.950;2023-08-24T03:27:43;16;16;
72908;PMS5003;61051;62.624;17.950;2023-08-24T03:30:12;17;17;
72908;PMS5003;61051;62.624;17.950;2023-08-24T03:32:41;15;15;
72908;PMS5003;61051;62.624;17.950;2023-08-24T03:35:10;15;12;
72908;PMS5003;61051;62.624;17.950;2023-08-24T03:37:38;11;11;
72908;PMS5003;61051;62.624;17.950;2023-08-24T03:40:07;11;11;
72908;PMS5003;61051;62.624;17.950;2023-08-24T03:42:36;14;14;
72908;PMS5003;61051;62.624;17.950;2023-08-24T03:45:05;14;14;
72908;PMS5003;61051;62.624;17.950;2023-08-24T03:47:34;15;13;
72908;PMS5003;61051;62.624;17.950;2023-08-24T03:50:03;13;12;
72908;PMS5003;61051;62.624;17.950;2023-08-24T03:52:32;14;14;
72908;PMS5003;61051;62.624;17.950;2023-08-24T03:55:00;13;12;
72908;PMS5003;61051;62.624;17.950;2023-08-24T03:57:30;12;12;
72908;PMS5003;61051;62.624;17.950;2023-08-24T03:59:59;13;13;
72908;PMS5003;61051;62.624;17.950;2023-08-24T04:03:15;12;12;
72908;PMS5003;61051;62.624;17.950;2023-08-24T04:05:45;17;14;
72908;PMS5003;61051;62.624;17.950;2023-08-24T04:08:13;17;17;
72908;PMS5003;61051;62.624;17.950;2023-08-24T04:10:42;19;17;
72908;PMS5003;61051;62.624;17.950;2023-08-24T04:13:11;16;14;
72908;PMS5003;61051;62.624;17.950;2023-08-24T04:15:39;19;15;
72908;PMS5003;61051;62.624;17.950;2023-08-24T04:18:07;18;15;
72908;PMS5003;61051;62.624;17.950;2023-08-24T04:20:36;17;17;
72908;PMS5003;61051;62.624;17.950;2023-08-24T04:23:05;20;20;
72908;PMS5003;61051;62.624;17.950;2023-08-24T04:25:34;20;19;
72908;PMS5003;61051;62.624;17.950;2023-08-24T04:28:04;19;19;
72908;PMS5003;61051;62.624;17.950;2023-08-24T04:30:32;19;17;
72908;PMS5003;61051;62.624;17.950;2023-08-24T04:33:01;28;19;
72908;PMS5003;61051;62.624;17.950;2023-08-24T04:35:30;18;16;
72908;PMS5003;61051;62.624;17.950;2023-08-24T04:38:02;18;18;
72908;PMS5003;61051;62.624;17.950;2023-08-24T04:40:44;21;19;
72908;PMS5003;61051;62.624;17.950;2023-08-24T04:43:14;21;19;
72908;PMS5003;61051;62.624;17.950;2023-08-24T04:45:42;22;18;
72908;PMS5003;61051;62.624;17.950;2023-08-24T04:48:11;20;18;
72908;PMS5003;61051;62.624;17.950;2023-08-24T04:50:41;24;21;
72908;PMS5003;61051;62.624;17.950;2023-08-24T04:53:13;27;22;
72908;PMS5003;61051;62.624;17.950;2023-08-24T04:55:43;25;21;
72908;PMS5003;61051;62.624;17.950;2023-08-24T04:58:13;22;20;
72908;PMS5003;61051;62.624;17.950;2023-08-24T05:00:42;19;18;
72908;PMS5003;61051;62.624;17.950;2023-08-24T05:03:11;19;16;
72908;PMS5003;61051;62.624;17.950;2023-08-24T05:05:39;15;15;
72908;PMS5003;61051;62.624;17.950;2023-08-24T05:08:08;25;17;
72908;PMS5003;61051;62.624;17.950;2023-08-24T05:10:37;19;15;
72908;PMS5003;61051;62.624;17.950;2023-08-24T05:13:06;17;16;
72908;PMS5003;61051;62.624;17.950;2023-08-24T05:15:35;18;15;
72908;PMS5003;61051;62.624;17.950;2023-08-24T05:18:04;13;13;
72908;PMS5003;61051;62.624;17.950;2023-08-24T05:20:32;16;14;
72908;PMS5003;61051;62.624;17.950;2023-08-24T05:23:01;20;14;
72908;PMS5003;61051;62.624;17.950;2023-08-24T05:25:30;18;14;
72908;PMS5003;61051;62.624;17.950;2023-08-24T05:27:58;12;12;
72908;PMS5003;61051;62.624;17.950;2023-08-24T05:30:27;18;14;
72908;PMS5003;61051;62.624;17.950;2023-08-24T05:32:56;15;15;
72908;PMS5003;61051;62.624;17.950;2023-08-24T05:35:25;17;13;
72908;PMS5003;61051;62.624;17.950;2023-08-24T05:37:54;15;15;
72908;PMS5003;61051;62.624;17.950;2023-08-24T05:40:23;15;14;
72908;PMS5003;61051;62.624;17.950;2023-08-24T05:42:52;17;11;
72908;PMS5003;61051;62.624;17.950;2023-08-24T05:45:22;13;12;
72908;PMS5003;61051;62.624;17.950;2023-08-24T05:47:50;13;10;
72908;PMS5003;61051;62.624;17.950;2023-08-24T05:50:18;13;13;
72908;PMS5003;61051;62.624;17.950;2023-08-24T05:52:46;16;14;
72908;PMS5003;61051;62.624;17.950;2023-08-24T05:55:14;13;13;
72908;PMS5003;61051;62.624;17.950;2023-08-24T05:57:42;13;13;
72908;PMS5003;61051;62.624;17.950;2023-08-24T06:00:12;15;15;
72908;PMS5003;61051;62.624;17.950;2023-08-24T06:02:41;14;11;
72908;PMS5003;61051;62.624;17.950;2023-08-24T06:05:10;19;14;
72908;PMS5003;61051;62.624;17.950;2023-08-24T06:07:38;16;14;
72908;PMS5003;61051;62.624;17.950;2023-08-24T06:10:07;19;14;
72908;PMS5003;61051;62.624;17.950;2023-08-24T06:12:36;14;12;
72908;PMS5003;61051;62.624;17.950;2023-08-24T06:15:06;16;14;
72908;PMS5003;61051;62.624;17.950;2023-08-24T06:17:36;16;16;
72908;PMS5003;61051;62.624;17.950;2023-08-24T06:20:04;19;16;
72908;PMS5003;61051;62.624;17.950;2023-08-24T06:22:34;15;14;
72908;PMS5003;61051;62.624;17.950;2023-08-24T06:25:03;14;11;
72908;PMS5003;61051;62.624;17.950;2023-08-24T06:27:32;13;12;
72908;PMS5003;61051;62.624;17.950;2023-08-24T06:30:00;13;13;
72908;PMS5003;61051;62.624;17.950;2023-08-24T06:32:28;12;12;
72908;PMS5003;61051;62.624;17.950;2023-08-24T06:34:58;14;12;
72908;PMS5003;61051;62.624;17.950;2023-08-24T06:37:26;12;12;
72908;PMS5003;61051;62.624;17.950;2023-08-24T06:39:54;11;11;
72908;PMS5003;61051;62.624;17.950;2023-08-24T06:42:22;15;13;
72908;PMS5003;61051;62.624;17.950;2023-08-24T06:44:50;10;10;
72908;PMS5003;61051;62.624;17.950;2023-08-24T06:47:18;10;10;
72908;PMS5003;61051;62.624;17.950;2023-08-24T06:49:46;12;11;
72908;PMS5003;61051;62.624;17.950;2023-08-24T06:52:15;16;15;
72908;PMS5003;61051;62.624;17.950;2023-08-24T06:54:44;20;13;
72908;PMS5003;61051;62.624;17.950;2023-08-24T06:57:12;14;14;
72908;PMS5003;61051;62.624;17.950;2023-08-24T06:59:41;13;13;
72908;PMS5003;61051;62.624;17.950;2023-08-24T07:02:10;25;16;
72908;PMS5003;61051;62.624;17.950;2023-08-24T07:04:39;15;15;
72908;PMS5003;61051;62.624;17.950;2023-08-24T07:07:08;19;16;
72908;PMS5003;61051;62.624;17.950;2023-08-24T07:09:37;19;18;
72908;PMS5003;61051;62.624;17.950;2023-08-24T07:12:05;16;16;
72908;PMS5003;61051;62.624;17.950;2023-08-24T07:14:34;20;14;
72908;PMS5003;61051;62.624;17.950;2023-08-24T07:17:03;19;17;
72908;PMS5003;61051;62.624;17.950;2023-08-24T07:19:31;14;14;
72908;PMS5003;61051;62.624;17.950;2023-08-24T07:21:59;14;13;
72908;PMS5003;61051;62.624;17.950;2023-08-24T07:24:28;16;16;
72908;PMS5003;61051;62.624;17.950;2023-08-24T07:26:57;20;13;
72908;PMS5003;61051;62.624;17.950;2023-08-24T07:29:26;24;16;
72908;PMS5003;61051;62.624;17.950;2023-08-24T07:31:54;12;12;
72908;PMS5003;61051;62.624;17.950;2023-08-24T07:34:22;12;12;
72908;PMS5003;61051;62.624;17.950;2023-08-24T07:36:51;23;14;
72908;PMS5003;61051;62.624;17.950;2023-08-24T07:39:21;14;13;
72908;PMS5003;61051;62.624;17.950;2023-08-24T07:41:49;13;13;
72908;PMS5003;61051;62.624;17.950;2023-08-24T07:44:17;16;12;
72908;PMS5003;61051;62.624;17.950;2023-08-24T07:46:46;14;14;
72908;PMS5003;61051;62.624;17.950;2023-08-24T07:49:15;17;15;
72908;PMS5003;61051;62.624;17.950;2023-08-24T07:51:44;17;17;
72908;PMS5003;61051;62.624;17.950;2023-08-24T07:54:13;16;15;
72908;PMS5003;61051;62.624;17.950;2023-08-24T07:56:42;15;15;
72908;PMS5003;61051;62.624;17.950;2023-08-24T07:59:11;16;15;
72908;PMS5003;61051;62.624;17.950;2023-08-24T08:01:39;12;12;
72908;PMS5003;61051;62.624;17.950;2023-08-24T08:04:07;15;13;
72908;PMS5003;61051;62.624;17.950;2023-08-24T08:06:36;15;12;
72908;PMS5003;61051;62.624;17.950;2023-08-24T08:09:04;15;14;
72908;PMS5003;61051;62.624;17.950;2023-08-24T08:11:33;22;16;
72908;PMS5003;61051;62.624;17.950;2023-08-24T08:14:02;13;13;
72908;PMS5003;61051;62.624;17.950;2023-08-24T08:16:30;16;16;
72908;PMS5003;61051;62.624;17.950;2023-08-24T08:18:58;16;14;
72908;PMS5003;61051;62.624;17.950;2023-08-24T08:21:27;13;13;
72908;PMS5003;61051;62.624;17.950;2023-08-24T08:23:55;15;15;
72908;PMS5003;61051;62.624;17.950;2023-08-24T08:26:23;18;14;
72908;PMS5003;61051;62.624;17.950;2023-08-24T08:28:52;17;15;
72908;PMS5003;61051;62.624;17.950;2023-08-24T08:31:22;13;13;
72908;PMS5003;61051;62.624;17.950;2023-08-24T08:33:50;15;13;
72908;PMS5003;61051;62.624;17.950;2023-08-24T08:36:19;14;12;
72908;PMS5003;61051;62.624;17.950;2023-08-24T08:38:48;16;13;
72908;PMS5003;61051;62.624;17.950;2023-08-24T08:41:16;14;14;
72908;PMS5003;61051;62.624;17.950;2023-08-24T08:43:49;11;10;
72908;PMS5003;61051;62.624;17.950;2023-08-24T08:46:18;17;14;
72908;PMS5003;61051;62.624;17.950;2023-08-24T08:48:47;20;12;
72908;PMS5003;61051;62.624;17.950;2023-08-24T08:51:19;14;14;
72908;PMS5003;61051;62.624;17.950;2023-08-24T08:53:49;16;16;
72908;PMS5003;61051;62.624;17.950;2023-08-24T08:56:17;14;13;
72908;PMS5003;61051;62.624;17.950;2023-08-24T08:58:45;13;13;
72908;PMS5003;61051;62.624;17.950;2023-08-24T09:01:16;14;13;
72908;PMS5003;61051;62.624;17.950;2023-08-24T09:03:45;12;12;
72908;PMS5003;61051;62.624;17.950;2023-08-24T09:06:15;9;9;
72908;PMS5003;61051;62.624;17.950;2023-08-24T09:08:44;11;10;
72908;PMS5003;61051;62.624;17.950;2023-08-24T09:11:14;10;9;
72908;PMS5003;61051;62.624;17.950;2023-08-24T09:13:43;13;12;
72908;PMS5003;61051;62.624;17.950;2023-08-24T09:16:11;11;11;
72908;PMS5003;61051;62.624;17.950;2023-08-24T09:18:41;7;7;
72908;PMS5003;61051;62.624;17.950;2023-08-24T09:21:13;8;8;
72908;PMS5003;61051;62.624;17.950;2023-08-24T09:23:43;10;9;
72908;PMS5003;61051;62.624;17.950;2023-08-24T09:26:14;12;10;
72908;PMS5003;61051;62.624;17.950;2023-08-24T09:28:42;11;11;
72908;PMS5003;61051;62.624;17.950;2023-08-24T09:31:12;11;10;
72908;PMS5003;61051;62.624;17.950;2023-08-24T09:33:42;8;8;
72908;PMS5003;61051;62.624;17.950;2023-08-24T09:36:12;11;11;
72908;PMS5003;61051;62.624;17.950;2023-08-24T09:38:46;10;10;
72908;PMS5003;61051;62.624;17.950;2023-08-24T09:41:16;13;12;
72908;PMS5003;61051;62.624;17.950;2023-08-24T09:43:44;12;12;
72908;PMS5003;61051;62.624;17.950;2023-08-24T09:46:12;10;9;
72908;PMS5003;61051;62.624;17.950;2023-08-24T09:48:53;12;12;
72908;PMS5003;61051;62.624;17.950;2023-08-24T09:51:22;12;12;
72908;PMS5003;61051;62.624;17.950;2023-08-24T09:53:54;13;13;
72908;PMS5003;61051;62.624;17.950;2023-08-24T09:56:27;14;12;
72908;PMS5003;61051;62.624;17.950;2023-08-24T09:58:57;13;11;
72908;PMS5003;61051;62.624;17.950;2023-08-24T10:03:01;11;10;
72908;PMS5003;61051;62.624;17.950;2023-08-24T10:05:31;14;13;
72908;PMS5003;61051;62.624;17.950;2023-08-24T10:08:01;15;13;
72908;PMS5003;61051;62.624;17.950;2023-08-24T10:10:30;14;14;
72908;PMS5003;61051;62.624;17.950;2023-08-24T10:13:03;13;13;
72908;PMS5003;61051;62.624;17.950;2023-08-24T10:15:37;13;12;
72908;PMS5003;61051;62.624;17.950;2023-08-24T10:18:07;10;10;
72908;PMS5003;61051;62.624;17.950;2023-08-24T10:20:36;5;3;
72908;PMS5003;61051;62.624;17.950;2023-08-24T10:23:04;3;3;
72908;PMS5003;61051;62.624;17.950;2023-08-24T10:25:32;5;5;
72908;PMS5003;61051;62.624;17.950;2023-08-24T10:28:02;4;4;
72908;PMS5003;61051;62.624;17.950;2023-08-24T10:30:31;5;4;
72908;PMS5003;61051;62.624;17.950;2023-08-24T10:33:02;6;5;
72908;PMS5003;61051;62.624;17.950;2023-08-24T10:35:31;6;6;
72908;PMS5003;61051;62.624;17.950;2023-08-24T10:38:00;9;6;
72908;PMS5003;61051;62.624;17.950;2023-08-24T10:40:31;7;5;
72908;PMS5003;61051;62.624;17.950;2023-08-24T10:43:02;6;5;
72908;PMS5003;61051;62.624;17.950;2023-08-24T10:45:53;6;5;
72908;PMS5003;61051;62.624;17.950;2023-08-24T10:48:22;4;3;
72908;PMS5003;61051;62.624;17.950;2023-08-24T10:51:24;5;5;
72908;PMS5003;61051;62.624;17.950;2023-08-24T10:53:53;6;6;
72908;PMS5003;61051;62.624;17.950;2023-08-24T10:56:29;6;6;
72908;PMS5003;61051;62.624;17.950;2023-08-24T10:59:15;8;5;
72908;PMS5003;61051;62.624;17.950;2023-08-24T11:01:54;7;6;
72908;PMS5003;61051;62.624;17.950;2023-08-24T11:04:23;7;4;
72908;PMS5003;61051;62.624;17.950;2023-08-24T11:06:52;6;5;
72908;PMS5003;61051;62.624;17.950;2023-08-24T11:09:23;8;7;
72908;PMS5003;61051;62.624;17.950;2023-08-24T11:11:59;6;6;
72908;PMS5003;61051;62.624;17.950;2023-08-24T11:14:30;7;7;
72908;PMS5003;61051;62.624;17.950;2023-08-24T11:16:59;7;7;
72908;PMS5003;61051;62.624;17.950;2023-08-24T11:19:28;6;6;
72908;PMS5003;61051;62.624;17.950;2023-08-24T11:21:58;10;8;
72908;PMS5003;61051;62.624;17.950;2023-08-24T11:24:27;5;5;
72908;PMS5003;61051;62.624;17.950;2023-08-24T11:26:56;7;7;
72908;PMS5003;61051;62.624;17.950;2023-08-24T11:29:27;8;7;
72908;PMS5003;61051;62.624;17.950;2023-08-24T11:31:56;7;5;
72908;PMS5003;61051;62.624;17.950;2023-08-24T11:34:25;10;8;
72908;PMS5003;61051;62.624;17.950;2023-08-24T11:36:53;7;6;
72908;PMS5003;61051;62.624;17.950;2023-08-24T11:39:22;7;7;
72908;PMS5003;61051;62.624;17.950;2023-08-24T11:41:59;6;6;
72908;PMS5003;61051;62.624;17.950;2023-08-24T11:44:30;5;4;
72908;PMS5003;61051;62.624;17.950;2023-08-24T11:47:14;6;6;
72908;PMS5003;61051;62.624;17.950;2023-08-24T11:49:42;6;6;
72908;PMS5003;61051;62.624;17.950;2023-08-24T11:52:10;5;5;
72908;PMS5003;61051;62.624;17.950;2023-08-24T11:54:38;10;8;
72908;PMS5003;61051;62.624;17.950;2023-08-24T11:57:07;7;6;
72908;PMS5003;61051;62.624;17.950;2023-08-24T11:59:35;6;6;
72908;PMS5003;61051;62.624;17.950;2023-08-24T12:02:05;9;8;
72908;PMS5003;61051;62.624;17.950;2023-08-24T12:04:38;6;6;
72908;PMS5003;61051;62.624;17.950;2023-08-24T12:07:08;5;5;
72908;PMS5003;61051;62.624;17.950;2023-08-24T12:09:38;5;5;
72908;PMS5003;61051;62.624;17.950;2023-08-24T12:12:11;7;7;
72908;PMS5003;61051;62.624;17.950;2023-08-24T12:14:41;5;5;
72908;PMS5003;61051;62.624;17.950;2023-08-24T12:17:11;6;6;
72908;PMS5003;61051;62.624;17.950;2023-08-24T12:19:41;3;3;
72908;PMS5003;61051;62.624;17.950;2023-08-24T12:22:12;4;4;
72908;PMS5003;61051;62.624;17.950;2023-08-24T12:24:43;7;5;
72908;PMS5003;61051;62.624;17.950;2023-08-24T12:27:17;6;3;
72908;PMS5003;61051;62.624;17.950;2023-08-24T12:29:45;6;6;
72908;PMS5003;61051;62.624;17.950;2023-08-24T12:32:16;8;8;
72908;PMS5003;61051;62.624;17.950;2023-08-24T12:34:45;8;6;
72908;PMS5003;61051;62.624;17.950;2023-08-24T12:37:13;4;4;
72908;PMS5003;61051;62.624;17.950;2023-08-24T12:39:41;5;5;
72908;PMS5003;61051;62.624;17.950;2023-08-24T12:42:09;5;5;
72908;PMS5003;61051;62.624;17.950;2023-08-24T12:44:37;6;5;
72908;PMS5003;61051;62.624;17.950;2023-08-24T12:47:05;8;8;
72908;PMS5003;61051;62.624;17.950;2023-08-24T12:49:33;6;5;
72908;PMS5003;61051;62.624;17.950;2023-08-24T12:52:01;7;6;
72908;PMS5003;61051;62.624;17.950;2023-08-24T12:54:30;8;8;
72908;PMS5003;61051;62.624;17.950;2023-08-24T12:56:59;10;8;
72908;PMS5003;61051;62.624;17.950;2023-08-24T12:59:27;9;8;
72908;PMS5003;61051;62.624;17.950;2023-08-24T13:01:55;8;8;
72908;PMS5003;61051;62.624;17.950;2023-08-24T13:04:23;9;7;
72908;PMS5003;61051;62.624;17.950;2023-08-24T13:06:51;9;9;
72908;PMS5003;61051;62.624;17.950;2023-08-24T13:09:19;11;11;
72908;PMS5003;61051;62.624;17.950;2023-08-24T13:11:48;11;11;
72908;PMS5003;61051;62.624;17.950;2023-08-24T13:14:17;14;13;
72908;PMS5003;61051;62.624;17.950;2023-08-24T13:16:46;13;13;
72908;PMS5003;61051;62.624;17.950;2023-08-24T13:19:15;21;15;
72908;PMS5003;61051;62.624;17.950;2023-08-24T13:21:43;14;10;
72908;PMS5003;61051;62.624;17.950;2023-08-24T13:24:11;11;11;
72908;PMS5003;61051;62.624;17.950;2023-08-24T13:26:39;7;7;
72908;PMS5003;61051;62.624;17.950;2023-08-24T13:29:07;5;5;
72908;PMS5003;61051;62.624;17.950;2023-08-24T13:31:35;6;6;
72908;PMS5003;61051;62.624;17.950;2023-08-24T13:34:03;5;5;
72908;PMS5003;61051;62.624;17.950;2023-08-24T13:36:33;6;6;
72908;PMS5003;61051;62.624;17.950;2023-08-24T13:39:01;6;6;
72908;PMS5003;61051;62.624;17.950;2023-08-24T13:41:30;5;5;
72908;PMS5003;61051;62.624;17.950;2023-08-24T13:43:58;5;5;
72908;PMS5003;61051;62.624;17.950;2023-08-24T13:46:27;10;7;
72908;PMS5003;61051;62.624;17.950;2023-08-24T13:48:55;6;6;
72908;PMS5003;61051;62.624;17.950;2023-08-24T13:51:22;6;5;
72908;PMS5003;61051;62.624;17.950;2023-08-24T13:53:50;7;7;
72908;PMS5003;61051;62.624;17.950;2023-08-24T13:56:18;5;5;
72908;PMS5003;61051;62.624;17.950;2023-08-24T13:58:46;7;7;
72908;PMS5003;61051;62.624;17.950;2023-08-24T14:01:14;6;6;
72908;PMS5003;61051;62.624;17.950;2023-08-24T14:03:42;8;8;
72908;PMS5003;61051;62.624;17.950;2023-08-24T14:06:10;8;8;
72908;PMS5003;61051;62.624;17.950;2023-08-24T14:08:38;8;8;
72908;PMS5003;61051;62.624;17.950;2023-08-24T14:11:07;14;11;
72908;PMS5003;61051;62.624;17.950;2023-08-24T14:13:35;10;10;
72908;PMS5003;61051;62.624;17.950;2023-08-24T14:16:03;16;14;
72908;PMS5003;61051;62.624;17.950;2023-08-24T14:18:33;12;12;
72908;PMS5003;61051;62.624;17.950;2023-08-24T14:21:01;15;14;
72908;PMS5003;61051;62.624;17.950;2023-08-24T14:23:31;17;12;
72908;PMS5003;61051;62.624;17.950;2023-08-24T14:25:59;12;12;
72908;PMS5003;61051;62.624;17.950;2023-08-24T14:28:46;13;13;
72908;PMS5003;61051;62.624;17.950;2023-08-24T14:31:16;15;15;
72908;PMS5003;61051;62.624;17.950;2023-08-24T14:33:46;14;14;
72908;PMS5003;61051;62.624;17.950;2023-08-24T14:36:15;19;13;
72908;PMS5003;61051;62.624;17.950;2023-08-24T14:38:44;14;13;
72908;PMS5003;61051;62.624;17.950;2023-08-24T14:41:13;15;13;
72908;PMS5003;61051;62.624;17.950;2023-08-24T14:43:43;14;14;
72908;PMS5003;61051;62.624;17.950;2023-08-24T14:46:12;14;12;
72908;PMS5003;61051;62.624;17.950;2023-08-24T14:48:40;12;11;
72908;PMS5003;61051;62.624;17.950;2023-08-24T14:51:09;14;14;
72908;PMS5003;61051;62.624;17.950;2023-08-24T14:53:38;12;12;
72908;PMS5003;61051;62.624;17.950;2023-08-24T14:56:06;13;13;
72908;PMS5003;61051;62.624;17.950;2023-08-24T14:58:34;11;11;
72908;PMS5003;61051;62.624;17.950;2023-08-24T15:01:03;12;12;
72908;PMS5003;61051;62.624;17.950;2023-08-24T15:03:32;11;11;
72908;PMS5003;61051;62.624;17.950;2023-08-24T15:06:00;18;15;
72908;PMS5003;61051;62.624;17.950;2023-08-24T15:08:32;12;12;
72908;PMS5003;61051;62.624;17.950;2023-08-24T15:11:01;15;11;
72908;PMS5003;61051;62.624;17.950;2023-08-24T15:13:30;13;12;
72908;PMS5003;61051;62.624;17.950;2023-08-24T15:15:58;14;14;
72908;PMS5003;61051;62.624;17.950;2023-08-24T15:18:26;14;13;
72908;PMS5003;61051;62.624;17.950;2023-08-24T15:20:55;12;12;
72908;PMS5003;61051;62.624;17.950;2023-08-24T15:23:24;12;12;
72908;PMS5003;61051;62.624;17.950;2023-08-24T15:25:54;14;14;
72908;PMS5003;61051;62.624;17.950;2023-08-24T15:28:24;11;11;
72908;PMS5003;61051;62.624;17.950;2023-08-24T15:30:54;16;14;
72908;PMS5003;61051;62.624;17.950;2023-08-24T15:33:23;13;12;
72908;PMS5003;61051;62.624;17.950;2023-08-24T15:35:52;16;14;
72908;PMS5003;61051;62.624;17.950;2023-08-24T15:38:20;13;12;
72908;PMS5003;61051;62.624;17.950;2023-08-24T15:40:50;13;13;
72908;PMS5003;61051;62.624;17.950;2023-08-24T15:43:20;12;11;
72908;PMS5003;61051;62.624;17.950;2023-08-24T15:45:49;14;13;
72908;PMS5003;61051;62.624;17.950;2023-08-24T15:48:18;12;12;
72908;PMS5003;61051;62.624;17.950;2023-08-24T15:50:46;12;12;
72908;PMS5003;61051;62.624;17.950;2023-08-24T15:53:14;15;15;
72908;PMS5003;61051;62.624;17.950;2023-08-24T15:55:43;17;12;
72908;PMS5003;61051;62.624;17.950;2023-08-24T15:58:12;21;15;
72908;PMS5003;61051;62.624;17.950;2023-08-24T16:03:31;14;13;
72908;PMS5003;61051;62.624;17.950;2023-08-24T16:06:00;12;11;
72908;PMS5003;61051;62.624;17.950;2023-08-24T16:08:28;10;10;
72908;PMS5003;61051;62.624;17.950;2023-08-24T16:10:56;14;14;
72908;PMS5003;61051;62.624;17.950;2023-08-24T16:13:26;14;14;
72908;PMS5003;61051;62.624;17.950;2023-08-24T16:15:54;12;11;
72908;PMS5003;61051;62.624;17.950;2023-08-24T16:18:22;11;11;
72908;PMS5003;61051;62.624;17.950;2023-08-24T16:20:52;14;13;
72908;PMS5003;61051;62.624;17.950;2023-08-24T16:23:20;14;14;
72908;PMS5003;61051;62.624;17.950;2023-08-24T16:25:49;14;14;
72908;PMS5003;61051;62.624;17.950;2023-08-24T16:28:18;10;10;
72908;PMS5003;61051;62.624;17.950;2023-08-24T16:30:46;10;10;